Details From EGPO - Stornoway
To EGWU - Northolt
Flight Number -
Tags Generated
Created
Modified
Stats Distance 449 nm / 831 km
Max Altitude 0 ft / 0 m
Waypoints 4
Social Downloads 1
Likes 0
Share VATSIM

Download

Looking for another format? Having issues loading an existing format? Contact us
Advertisement - Login to hide

Notes

Generated

Route

EGPO DCS20 BOVVA EGWU

ID Type Via Altitude Latitude Longitude Leg Dist Tot Dist Heading (true) Name
O EGPO APT - 0 ft / 0 m 58.21205˚ -6.33581˚ - 0 nm - -
DCS20 FIX - 0 ft / 0 m 55.05583˚ -3.34583˚ 213 nm 213 nm 151° / 154° -
BOVVA FIX - 0 ft / 0 m 51.72611˚ -0.54972˚ 223 nm 437 nm 152° / 155° -
O EGWU APT - 0 ft / 0 m 51.55006˚ -0.43102˚ 11 nm 448 nm 157° / 157° -

Altitude Profile

Advertisement - Login to hide

Weather


0- 5 10 15 20 25 30 35+ Temperature / ° C

Clouds and Precipitation
Forecast for 2017-12-15 12:00 UTC. Updated an hour ago

Ground ~20,000 ft ~40,000 ft Winds

EGPO

Details ICAO EGPO (SYY)
Name Stornoway
Region United Kingdom
Timezone Europe/London (UTC+0.0)
Stats Elevation 26 ft / 8 m (AMSL)
Location 58.214496° -6.330596°
Runways 2
Magnetic Variation 4.032° W

METAR

EGPO 151020Z 32008KT 9999 FEW018 FEW026CB 03/01 Q1007

Decode

TAF

Not found

Departure Runways

ID Width Length Bearing (true) Bearing (mag) Surface Threshold Offset Overrun Length
07 75 ft / 23 m 3,574 ft / 1,090 m 59.83° 63.86° Asphalt 305 ft / 93 m 0 ft / 0 m
18 151 ft / 46 m 6,797 ft / 2,072 m 174.28° 178.31° Asphalt 0 ft / 0 m 397 ft / 121 m
25 75 ft / 23 m 3,574 ft / 1,090 m 239.84° 243.87° Asphalt 0 ft / 0 m 0 ft / 0 m
36 151 ft / 46 m 6,797 ft / 2,072 m 354.29° 358.32° Asphalt 0 ft / 0 m 394 ft / 120 m

EGWU

Details ICAO EGWU (NHT)
Name RAF Northolt
Region United Kingdom
Timezone Europe/London (UTC+0.0)
Stats Elevation 124 ft / 38 m (AMSL)
Location 51.552696° -0.419593°
Runways 1
Magnetic Variation 0.554° W

METAR

EGWU 150950Z 34011KT 9999 FEW015 BKN200 03/01 Q0996 NOSIG

Decode

TAF

TAF EGWU 150735Z 1509/1603 34012KT 9999 FEW020 TEMPO 1509/1515 SCT020 TEMPO 1511/1517 34015G25KT

Decode

Destination Runways

ID Width Length Bearing (true) Bearing (mag) Surface Threshold Offset Overrun Length
07 151 ft / 46 m 5,531 ft / 1,686 m 69.62° 70.17° Asphalt 302 ft / 92 m 0 ft / 0 m
25 151 ft / 46 m 5,531 ft / 1,686 m 249.64° 250.19° Asphalt 0 ft / 0 m 0 ft / 0 m

Approach Navaids

Runway Type Ident Frequency Range Bearing (true) Bearing (mag) Slope Elevation
25 Localiser INHT 108.55 MHz 18 nm / 33 km 249.76° 250.31° - 124 ft / 38 m (AMSL)
25 Glidescope INHT 108.55 MHz 10 nm / 19 km 249.63° 250.18° 3.50° 124 ft / 38 m (AMSL)
25 DME INHT 108.55 MHz 18 nm / 33 km - - - 124 ft / 38 m (AMSL)